Great Notch, New Jersey
Current Conditions -  °F | °C
As of 8:53 AM on Thursday 18 Dec 2014 (Local Time) from KCDW Reporting Station
Broken Clouds Broken Clouds  
Wind Chill: 27°   Ceiling: 4000
Heat Index: 37°   Visibility: 10mi
Dew Point: 21°   Wind: 18mph
Humidity: 52%   Direction: 310°NW
Pressure: 29.99"   Gusts: 26mph
Location:  40.8835°N, 74.2057°W
Report Text: KCDW 181353Z AUTO 31016G23KT 10SM BKN040 03/M06 A2999 RMK AO2 SLP162 T00281061 TSNO
Loading
Personal Weather Stations






























Interactive Weather Map New forecast layout! Learn more

10-Day Weather Forecast

Advertisements
Track Severe Weather on mobile